Time;durP1;ratioP1;P1;durP2;ratioP2;P2;SDS_P1;SDS_P2;PMS_P1;PMS_P2;Temp;Humidity;BMP_temperature;BMP_pressure;BME280_temperature;BME280_humidity;BME280_pressure;Samples;Min_cycle;Max_cycle;Signal;HPM_P1;HPM_P2
2022/04/28 00:01:03;;;;;;;17.77;12.13;;;;;;;;;;5054016;28;20027;-68
2022/04/28 00:03:30;;;;;;;20.63;13.38;;;;;;;;;;5054293;28;20071;-71
2022/04/28 00:05:57;;;;;;;21.10;13.75;;;;;;;;;;5053968;28;20086;-71
2022/04/28 00:08:23;;;;;;;19.52;12.45;;;;;;;;;;5053863;28;20025;-69
2022/04/28 00:10:49;;;;;;;19.55;13.40;;;;;;;;;;5053833;28;20032;-70
2022/04/28 00:13:15;;;;;;;23.27;14.02;;;;;;;;;;5054100;28;20383;-69
2022/04/28 00:15:41;;;;;;;20.60;13.70;;;;;;;;;;5053814;28;20127;-69
2022/04/28 00:18:07;;;;;;;20.40;13.07;;;;;;;;;;5054031;28;20025;-70
2022/04/28 00:20:33;;;;;;;22.90;13.70;;;;;;;;;;5053667;28;20052;-71
2022/04/28 00:22:59;;;;;;;21.30;13.82;;;;;;;;;;5053442;28;20033;-70
2022/04/28 00:25:25;;;;;;;19.73;13.55;;;;;;;;;;5053419;28;20025;-69
2022/04/28 00:27:54;;;;;;;22.98;13.65;;;;;;;;;;5054057;28;20594;-69
2022/04/28 00:30:20;;;;;;;19.13;12.85;;;;;;;;;;5053555;28;20028;-68
2022/04/28 00:32:46;;;;;;;20.85;14.13;;;;;;;;;;5053805;28;20036;-72
2022/04/28 00:35:13;;;;;;;24.85;14.25;;;;;;;;;;5053677;28;20466;-69
2022/04/28 00:37:40;;;;;;;20.20;13.80;;;;;;;;;;5053392;28;20029;-69
2022/04/28 00:40:07;;;;;;;22.27;13.80;;;;;;;;;;5053670;28;20029;-72
2022/04/28 00:42:33;;;;;;;21.75;14.80;;;;;;;;;;5035447;28;20021;-70
2022/04/28 00:44:59;;;;;;;20.88;14.25;;;;;;;;;;5053606;28;20029;-70
2022/04/28 00:50:38;;;;;;;18.95;13.63;;;;;;;;;;5053479;28;20067;-70
2022/04/28 00:52:58;;;;;;;19.00;14.45;;;;;;;;;;5053014;28;20067;-71
2022/04/28 00:55:25;;;;;;;18.98;14.30;;;;;;;;;;5035245;28;20021;-68
2022/04/28 00:57:51;;;;;;;24.92;14.90;;;;;;;;;;5053110;28;20024;-70
2022/04/28 01:00:17;;;;;;;19.58;13.32;;;;;;;;;;5053373;28;20495;-69
2022/04/28 01:02:43;;;;;;;20.38;13.68;;;;;;;;;;5053312;28;20029;-70
2022/04/28 01:05:10;;;;;;;21.30;13.75;;;;;;;;;;5053066;28;20032;-70
2022/04/28 01:07:36;;;;;;;23.00;14.25;;;;;;;;;;5053234;28;20028;-69
2022/04/28 01:10:03;;;;;;;18.52;13.23;;;;;;;;;;5052995;28;20479;-70
2022/04/28 01:12:30;;;;;;;20.63;13.27;;;;;;;;;;5053242;28;20538;-70
2022/04/28 01:14:56;;;;;;;21.58;14.10;;;;;;;;;;5053190;28;20029;-70
2022/04/28 01:17:22;;;;;;;20.27;13.70;;;;;;;;;;5053211;28;20095;-68
2022/04/28 01:19:48;;;;;;;21.20;14.15;;;;;;;;;;5052902;28;20026;-71
2022/04/28 01:22:14;;;;;;;19.30;14.27;;;;;;;;;;5052896;28;20017;-69
2022/04/28 01:24:40;;;;;;;22.90;14.50;;;;;;;;;;5052905;28;20099;-70
2022/04/28 01:27:06;;;;;;;21.67;14.35;;;;;;;;;;5052475;28;20045;-70
2022/04/28 01:29:33;;;;;;;18.45;14.10;;;;;;;;;;5052769;28;20035;-71
2022/04/28 01:31:59;;;;;;;25.23;14.85;;;;;;;;;;5052812;28;20096;-69
2022/04/28 01:34:25;;;;;;;21.17;14.32;;;;;;;;;;5052755;28;20025;-70
2022/04/28 01:36:51;;;;;;;23.42;14.35;;;;;;;;;;5057223;28;20083;-71
2022/04/28 01:39:17;;;;;;;26.15;14.20;;;;;;;;;;5056738;28;20017;-68
2022/04/28 01:41:43;;;;;;;18.45;13.02;;;;;;;;;;5056685;28;20032;-70
2022/04/28 01:44:09;;;;;;;19.58;13.50;;;;;;;;;;5056933;28;20025;-69
2022/04/28 01:46:35;;;;;;;18.15;13.80;;;;;;;;;;5056875;28;20028;-71
2022/04/28 01:49:01;;;;;;;17.83;14.07;;;;;;;;;;5056754;28;20082;-70
2022/04/28 01:56:56;;;;;;;19.77;13.98;;;;;;;;;;5056454;28;20070;-69
2022/04/28 01:59:22;;;;;;;20.00;14.30;;;;;;;;;;5056337;28;20047;-70
2022/04/28 02:01:48;;;;;;;23.52;14.45;;;;;;;;;;5056288;28;20021;-69
2022/04/28 02:04:14;;;;;;;19.13;14.27;;;;;;;;;;5056561;28;20025;-70
2022/04/28 02:06:43;;;;;;;20.08;14.52;;;;;;;;;;5056504;28;20029;-71
2022/04/28 02:09:09;;;;;;;18.75;13.85;;;;;;;;;;5038257;28;20044;-70
2022/04/28 02:11:35;;;;;;;19.15;13.57;;;;;;;;;;5056124;28;20114;-70
2022/04/28 02:14:01;;;;;;;20.35;14.55;;;;;;;;;;5056053;28;20029;-71
2022/04/28 02:16:27;;;;;;;22.02;14.85;;;;;;;;;;5056252;28;20053;-70
2022/04/28 02:18:53;;;;;;;17.23;12.63;;;;;;;;;;5056298;28;20021;-68
2022/04/28 02:21:19;;;;;;;18.75;13.55;;;;;;;;;;5055939;28;20029;-72
2022/04/28 02:23:45;;;;;;;21.08;14.70;;;;;;;;;;5056146;28;20394;-69
2022/04/28 02:26:11;;;;;;;20.35;14.40;;;;;;;;;;5055674;28;20055;-69
2022/04/28 02:28:37;;;;;;;19.50;13.85;;;;;;;;;;5056034;28;20039;-69
2022/04/28 02:31:04;;;;;;;22.90;13.88;;;;;;;;;;5056028;28;20021;-69
2022/04/28 02:33:30;;;;;;;21.27;14.50;;;;;;;;;;5055710;28;20021;-69
2022/04/28 02:35:56;;;;;;;20.83;14.82;;;;;;;;;;5055713;28;20017;-69
2022/04/28 02:38:23;;;;;;;21.95;14.90;;;;;;;;;;5055626;28;20479;-69
2022/04/28 02:40:49;;;;;;;21.63;15.25;;;;;;;;;;5037717;28;20071;-70
2022/04/28 02:43:15;;;;;;;20.92;14.25;;;;;;;;;;5055571;28;20070;-69
2022/04/28 02:45:41;;;;;;;22.42;14.82;;;;;;;;;;5055103;28;20036;-69
2022/04/28 02:48:07;;;;;;;19.80;14.20;;;;;;;;;;5055383;28;20463;-70
2022/04/28 02:50:33;;;;;;;24.02;15.15;;;;;;;;;;5055408;28;20021;-71
2022/04/28 02:52:59;;;;;;;24.38;15.20;;;;;;;;;;5037459;28;20418;-69
2022/04/28 02:55:25;;;;;;;23.42;14.48;;;;;;;;;;5055275;28;20021;-71
2022/04/28 02:57:52;;;;;;;20.23;15.02;;;;;;;;;;5055277;28;20473;-70
2022/04/28 03:00:18;;;;;;;20.90;14.38;;;;;;;;;;5055247;28;20025;-69
2022/04/28 03:02:44;;;;;;;21.40;14.70;;;;;;;;;;5055432;28;20061;-71
2022/04/28 03:05:10;;;;;;;21.95;14.57;;;;;;;;;;5055174;28;20498;-68
2022/04/28 03:10:49;;;;;;;24.02;14.50;;;;;;;;;;5055079;28;20031;-70
2022/04/28 03:13:17;;;;;;;23.77;15.52;;;;;;;;;;5055592;28;20036;-70
2022/04/28 03:15:45;;;;;;;23.67;14.85;;;;;;;;;;5055127;28;20410;-70
2022/04/28 03:18:11;;;;;;;21.38;14.60;;;;;;;;;;5054924;28;20029;-69
2022/04/28 03:20:37;;;;;;;24.35;14.63;;;;;;;;;;5054832;28;20021;-71
2022/04/28 03:23:03;;;;;;;24.38;16.23;;;;;;;;;;5055049;28;20029;-70
2022/04/28 03:25:29;;;;;;;22.45;15.23;;;;;;;;;;5054850;28;20041;-70
2022/04/28 03:27:56;;;;;;;21.90;15.90;;;;;;;;;;5054989;28;20036;-71
2022/04/28 03:30:22;;;;;;;21.67;15.82;;;;;;;;;;5054965;28;20013;-70
2022/04/28 03:32:49;;;;;;;22.88;14.88;;;;;;;;;;5055146;28;20029;-69
2022/04/28 03:35:15;;;;;;;23.58;16.02;;;;;;;;;;5054593;28;20017;-72
2022/04/28 03:37:44;;;;;;;24.90;15.52;;;;;;;;;;5054446;28;20033;-69
2022/04/28 03:40:10;;;;;;;23.60;15.57;;;;;;;;;;5054516;28;20438;-70
2022/04/28 03:42:36;;;;;;;25.42;16.27;;;;;;;;;;5054958;28;20029;-70
2022/04/28 03:45:03;;;;;;;23.02;15.52;;;;;;;;;;5054349;28;20036;-70
2022/04/28 03:47:32;;;;;;;23.73;16.23;;;;;;;;;;5054219;28;20025;-68
2022/04/28 03:49:58;;;;;;;21.67;15.23;;;;;;;;;;5054839;28;20056;-69
2022/04/28 03:52:25;;;;;;;21.67;15.52;;;;;;;;;;5054504;28;20079;-69
2022/04/28 03:54:51;;;;;;;23.55;16.77;;;;;;;;;;5054144;28;20032;-69
2022/04/28 03:57:17;;;;;;;22.63;15.05;;;;;;;;;;5054132;28;20028;-69
2022/04/28 03:59:43;;;;;;;22.38;15.95;;;;;;;;;;5053866;28;20060;-69
2022/04/28 04:02:10;;;;;;;23.58;15.55;;;;;;;;;;5054270;28;20437;-69
2022/04/28 04:04:36;;;;;;;21.15;15.00;;;;;;;;;;5054026;28;20498;-70
2022/04/28 04:07:02;;;;;;;22.25;15.45;;;;;;;;;;5053935;28;20021;-70
2022/04/28 04:09:28;;;;;;;25.40;15.32;;;;;;;;;;5053877;28;20025;-69
2022/04/28 04:11:54;;;;;;;21.20;15.20;;;;;;;;;;5053836;28;20359;-69
2022/04/28 04:14:20;;;;;;;23.20;15.80;;;;;;;;;;5054144;28;20039;-70
2022/04/28 04:16:46;;;;;;;23.13;15.13;;;;;;;;;;5053710;28;20505;-69
2022/04/28 04:19:12;;;;;;;22.58;15.75;;;;;;;;;;5053723;28;20111;-70
2022/04/28 04:21:39;;;;;;;23.02;15.35;;;;;;;;;;5054121;28;20114;-68
2022/04/28 04:24:05;;;;;;;22.42;15.93;;;;;;;;;;5053999;28;20076;-69
2022/04/28 04:26:31;;;;;;;22.35;16.10;;;;;;;;;;5053649;28;20052;-70
2022/04/28 04:28:57;;;;;;;20.17;15.30;;;;;;;;;;5054077;28;20029;-70
2022/04/28 04:34:08;;;;;;;21.70;15.32;;;;;;;;;;5054147;28;20415;-70
2022/04/28 04:36:34;;;;;;;22.63;16.10;;;;;;;;;;5053472;28;20025;-70
2022/04/28 04:39:00;;;;;;;21.65;15.82;;;;;;;;;;5053981;28;20029;-69
2022/04/28 04:41:26;;;;;;;22.52;14.88;;;;;;;;;;5053405;28;20021;-69
2022/04/28 04:43:52;;;;;;;20.13;15.30;;;;;;;;;;5053606;28;20104;-69
2022/04/28 04:46:18;;;;;;;24.02;17.17;;;;;;;;;;5053600;28;20055;-68
2022/04/28 04:48:44;;;;;;;21.85;15.48;;;;;;;;;;5053217;28;20415;-71
2022/04/28 04:51:10;;;;;;;21.55;15.68;;;;;;;;;;5053241;28;20055;-70
2022/04/28 04:53:36;;;;;;;24.83;16.45;;;;;;;;;;5053186;28;20028;-70
2022/04/28 04:56:02;;;;;;;29.63;17.23;;;;;;;;;;5035301;28;20054;-70
2022/04/28 04:58:28;;;;;;;21.60;15.05;;;;;;;;;;5053650;28;20021;-71
2022/04/28 05:00:54;;;;;;;21.38;15.40;;;;;;;;;;5053392;28;20155;-69
2022/04/28 05:03:20;;;;;;;24.48;16.55;;;;;;;;;;5053044;28;20025;-72
2022/04/28 05:05:46;;;;;;;28.20;17.50;;;;;;;;;;5053025;28;20027;-70
2022/04/28 05:08:14;;;;;;;24.77;15.90;;;;;;;;;;5052991;28;20053;-70
2022/04/28 05:10:40;;;;;;;25.20;16.02;;;;;;;;;;5053196;28;20021;-70
2022/04/28 05:13:08;;;;;;;21.88;15.50;;;;;;;;;;5053251;28;20027;-71
2022/04/28 05:15:34;;;;;;;24.95;15.68;;;;;;;;;;5052968;28;20017;-71
2022/04/28 05:18:00;;;;;;;25.92;16.35;;;;;;;;;;5053221;28;20025;-69
2022/04/28 05:20:26;;;;;;;22.40;16.25;;;;;;;;;;5053211;28;20075;-70
2022/04/28 05:22:52;;;;;;;25.88;16.27;;;;;;;;;;5053160;28;20033;-70
2022/04/28 05:25:18;;;;;;;24.23;16.08;;;;;;;;;;5052635;28;20032;-68
2022/04/28 05:27:44;;;;;;;23.65;15.90;;;;;;;;;;5053345;28;20036;-70
2022/04/28 05:30:10;;;;;;;24.83;16.90;;;;;;;;;;5053089;28;20021;-69
2022/04/28 05:32:36;;;;;;;23.98;16.63;;;;;;;;;;5034969;28;20024;-72
2022/04/28 05:35:02;;;;;;;24.70;17.45;;;;;;;;;;5053038;28;20021;-69
2022/04/28 05:37:28;;;;;;;24.70;16.70;;;;;;;;;;5052756;28;20086;-69
2022/04/28 05:39:54;;;;;;;24.40;16.27;;;;;;;;;;5052992;28;20021;-70
2022/04/28 05:42:20;;;;;;;26.13;17.23;;;;;;;;;;5052968;28;20415;-71
2022/04/28 05:47:31;;;;;;;27.15;17.25;;;;;;;;;;5052305;28;20506;-71
2022/04/28 05:49:57;;;;;;;27.92;17.67;;;;;;;;;;5034709;28;20052;-70
2022/04/28 05:52:23;;;;;;;23.58;16.45;;;;;;;;;;5052621;28;20029;-70
2022/04/28 05:54:49;;;;;;;24.15;16.52;;;;;;;;;;5052916;28;20056;-69
2022/04/28 05:57:16;;;;;;;21.95;17.15;;;;;;;;;;5052592;28;20067;-70
2022/04/28 05:59:42;;;;;;;24.35;16.40;;;;;;;;;;5052834;28;20021;-69
2022/04/28 06:02:08;;;;;;;24.08;16.48;;;;;;;;;;5052539;28;20028;-69
2022/04/28 06:04:35;;;;;;;26.20;17.52;;;;;;;;;;5052476;28;20421;-70
2022/04/28 06:07:01;;;;;;;22.25;16.05;;;;;;;;;;5052479;28;20529;-69
2022/04/28 06:09:27;;;;;;;22.08;15.95;;;;;;;;;;5052410;28;20491;-70
2022/04/28 06:11:53;;;;;;;34.95;16.55;;;;;;;;;;5052721;28;20024;-69
2022/04/28 06:14:19;;;;;;;26.90;17.08;;;;;;;;;;5052452;28;20040;-69
2022/04/28 06:16:45;;;;;;;25.27;16.48;;;;;;;;;;5052365;28;20048;-70
2022/04/28 06:19:11;;;;;;;27.08;17.02;;;;;;;;;;5034507;28;20060;-70
2022/04/28 06:21:37;;;;;;;25.80;16.90;;;;;;;;;;5054031;28;20446;-70
2022/04/28 06:24:04;;;;;;;29.48;16.88;;;;;;;;;;5055931;28;20096;-69
2022/04/28 06:26:30;;;;;;;25.75;15.90;;;;;;;;;;5055712;28;20049;-71
2022/04/28 06:28:56;;;;;;;24.67;16.08;;;;;;;;;;5055777;28;20021;-69
2022/04/28 06:31:22;;;;;;;25.02;16.77;;;;;;;;;;5055805;28;20021;-71
2022/04/28 06:33:48;;;;;;;23.65;15.90;;;;;;;;;;5055754;28;20032;-69
2022/04/28 06:36:14;;;;;;;23.83;16.05;;;;;;;;;;5055707;28;20029;-69
2022/04/28 06:38:40;;;;;;;22.45;16.05;;;;;;;;;;5055660;28;20024;-70
2022/04/28 06:41:06;;;;;;;27.77;16.20;;;;;;;;;;5055642;28;20102;-70
2022/04/28 06:43:33;;;;;;;22.85;15.02;;;;;;;;;;5055594;28;20492;-70
2022/04/28 06:46:14;;;;;;;25.85;15.05;;;;;;;;;;5055554;28;20108;-71
2022/04/28 06:48:41;;;;;;;23.80;15.18;;;;;;;;;;5056062;28;20503;-71
2022/04/28 06:51:07;;;;;;;24.67;16.50;;;;;;;;;;5055461;28;20395;-69
2022/04/28 06:53:33;;;;;;;26.90;15.23;;;;;;;;;;5055410;28;20532;-70
2022/04/28 06:55:59;;;;;;;25.20;16.00;;;;;;;;;;5055376;28;20029;-70
2022/04/28 06:58:25;;;;;;;27.52;15.65;;;;;;;;;;5037319;28;20068;-69
2022/04/28 07:00:52;;;;;;;23.60;15.95;;;;;;;;;;5055536;28;20395;-69
2022/04/28 07:03:19;;;;;;;24.10;15.63;;;;;;;;;;5037327;28;20483;-69
2022/04/28 07:05:45;;;;;;;23.10;15.38;;;;;;;;;;5055148;28;20028;-68
2022/04/28 07:08:11;;;;;;;24.90;15.77;;;;;;;;;;5055057;28;20056;-71
2022/04/28 07:10:38;;;;;;;24.17;15.45;;;;;;;;;;5055065;28;20036;-68
2022/04/28 07:13:04;;;;;;;25.08;15.43;;;;;;;;;;5055001;28;20013;-70
2022/04/28 07:15:30;;;;;;;23.90;15.77;;;;;;;;;;5050877;28;20040;-71
2022/04/28 07:17:56;;;;;;;23.25;16.25;;;;;;;;;;5050195;28;20025;-71
2022/04/28 07:20:22;;;;;;;23.02;15.30;;;;;;;;;;5049482;28;20029;-71
2022/04/28 07:22:48;;;;;;;24.85;15.63;;;;;;;;;;5049129;28;20025;-71
2022/04/28 07:25:14;;;;;;;25.67;16.50;;;;;;;;;;5050581;28;20096;-71
2022/04/28 07:27:40;;;;;;;25.02;15.90;;;;;;;;;;5049628;28;20048;-72
2022/04/28 07:30:07;;;;;;;22.30;15.23;;;;;;;;;;5048809;28;20146;-72
2022/04/28 07:32:33;;;;;;;23.00;15.90;;;;;;;;;;5050538;28;20031;-72
2022/04/28 07:34:59;;;;;;;22.63;15.68;;;;;;;;;;5054253;28;20060;-69
2022/04/28 07:37:25;;;;;;;23.02;14.32;;;;;;;;;;5054762;28;20017;-70
2022/04/28 07:39:51;;;;;;;22.08;14.68;;;;;;;;;;5054549;28;20036;-70
2022/04/28 07:42:18;;;;;;;24.92;16.00;;;;;;;;;;5054410;28;20048;-71
2022/04/28 07:44:44;;;;;;;25.75;16.33;;;;;;;;;;5048310;28;20376;-71
2022/04/28 07:47:10;;;;;;;26.48;16.02;;;;;;;;;;5050469;28;20021;-72
2022/04/28 07:49:36;;;;;;;21.63;16.45;;;;;;;;;;5049566;28;20040;-72
2022/04/28 07:52:03;;;;;;;21.20;16.23;;;;;;;;;;5032681;28;20040;-72
2022/04/28 07:54:29;;;;;;;21.58;15.95;;;;;;;;;;5048064;28;20025;-74
2022/04/28 07:56:55;;;;;;;22.90;15.70;;;;;;;;;;5049981;28;20025;-74
2022/04/28 07:59:21;;;;;;;25.67;16.75;;;;;;;;;;5049138;28;20060;-73
2022/04/28 08:01:47;;;;;;;24.95;15.43;;;;;;;;;;5048559;28;20033;-74
2022/04/28 08:04:13;;;;;;;20.52;14.48;;;;;;;;;;5049049;28;20025;-74
2022/04/28 08:06:39;;;;;;;21.85;15.45;;;;;;;;;;5048829;28;20025;-75
2022/04/28 08:09:05;;;;;;;21.08;15.18;;;;;;;;;;5050315;28;20039;-74
2022/04/28 08:11:31;;;;;;;22.48;16.08;;;;;;;;;;5050447;28;20116;-73
2022/04/28 08:13:57;;;;;;;23.52;15.82;;;;;;;;;;5047551;28;20029;-72
2022/04/28 08:16:23;;;;;;;21.33;15.57;;;;;;;;;;5049553;28;20044;-72
2022/04/28 08:18:49;;;;;;;21.50;15.40;;;;;;;;;;5049146;28;20063;-73
2022/04/28 08:21:15;;;;;;;20.63;14.32;;;;;;;;;;5048558;28;20028;-74
2022/04/28 08:23:41;;;;;;;19.67;14.35;;;;;;;;;;5043961;28;20100;-72
2022/04/28 08:26:07;;;;;;;23.55;15.48;;;;;;;;;;5044386;28;20075;-74
2022/04/28 08:28:34;;;;;;;18.42;14.40;;;;;;;;;;5066477;28;20029;-77
2022/04/28 08:31:00;;;;;;;19.10;14.60;;;;;;;;;;5067237;28;20025;-70
2022/04/28 08:33:26;;;;;;;19.25;14.07;;;;;;;;;;5066340;28;20025;-72
2022/04/28 08:35:52;;;;;;;19.25;15.32;;;;;;;;;;5072062;28;20060;-75
2022/04/28 08:38:18;;;;;;;23.08;15.98;;;;;;;;;;5069363;28;20029;-76
2022/04/28 08:40:47;;;;;;;19.23;14.93;;;;;;;;;;5070026;28;20066;-73
2022/04/28 08:43:15;;;;;;;20.20;14.18;;;;;;;;;;5066225;28;20116;-74
2022/04/28 08:46:50;;;;;;;20.30;13.57;;;;;;;;;;5064016;28;20036;-74
2022/04/28 08:48:31;;;;;;;22.27;15.43;;;;;;;;;;5062570;28;20028;-72
2022/04/28 08:50:57;;;;;;;19.67;14.60;;;;;;;;;;5069040;28;20128;-73
2022/04/28 08:53:23;;;;;;;17.92;13.57;;;;;;;;;;5067686;28;20028;-73
2022/04/28 08:55:49;;;;;;;19.85;13.85;;;;;;;;;;5071043;28;20104;-75
2022/04/28 08:58:15;;;;;;;18.20;13.77;;;;;;;;;;5070230;28;20170;-74
2022/04/28 09:00:41;;;;;;;18.35;14.05;;;;;;;;;;5067834;28;20032;-73
2022/04/28 09:03:07;;;;;;;18.65;14.15;;;;;;;;;;5068812;28;20036;-72
2022/04/28 09:05:33;;;;;;;19.52;14.35;;;;;;;;;;5068875;28;20406;-73
2022/04/28 09:08:00;;;;;;;17.52;13.20;;;;;;;;;;5064543;28;20035;-75
2022/04/28 09:10:26;;;;;;;18.50;13.70;;;;;;;;;;5065708;28;20024;-74
2022/04/28 09:12:56;;;;;;;17.45;13.60;;;;;;;;;;5068374;28;20102;-77
2022/04/28 09:15:22;;;;;;;17.83;13.43;;;;;;;;;;5072372;28;20380;-74
2022/04/28 09:17:48;;;;;;;17.08;12.77;;;;;;;;;;5072251;28;20209;-72
2022/04/28 09:20:15;;;;;;;19.38;14.00;;;;;;;;;;5071713;28;20032;-71
2022/04/28 09:22:42;;;;;;;18.35;13.38;;;;;;;;;;5067961;28;20044;-74
2022/04/28 09:25:09;;;;;;;16.55;13.32;;;;;;;;;;5061619;28;20025;-72
2022/04/28 09:27:35;;;;;;;15.80;12.75;;;;;;;;;;5051020;28;20061;-77
2022/04/28 09:30:01;;;;;;;16.20;12.82;;;;;;;;;;5051605;28;20021;-71
2022/04/28 09:32:28;;;;;;;16.42;12.55;;;;;;;;;;5032279;28;21655;-72
2022/04/28 09:34:55;;;;;;;16.58;12.95;;;;;;;;;;5050817;28;20059;-73
2022/04/28 09:37:22;;;;;;;17.70;12.85;;;;;;;;;;5039962;28;20025;-76
2022/04/28 09:42:42;;;;;;;16.73;12.85;;;;;;;;;;5050438;28;20048;-73
2022/04/28 09:45:09;;;;;;;19.02;12.90;;;;;;;;;;5052318;28;20033;-73
2022/04/28 09:47:36;;;;;;;16.92;12.75;;;;;;;;;;5052184;28;20043;-75
2022/04/28 09:50:12;;;;;;;15.70;12.38;;;;;;;;;;5052280;28;20100;-72
2022/04/28 09:52:39;;;;;;;21.73;13.48;;;;;;;;;;5050507;28;20427;-72
2022/04/28 09:55:05;;;;;;;17.88;12.55;;;;;;;;;;5051538;28;20446;-73
2022/04/28 09:57:31;;;;;;;18.75;13.15;;;;;;;;;;5053313;28;20029;-72
2022/04/28 09:59:58;;;;;;;16.83;12.65;;;;;;;;;;5036513;28;20021;-73
2022/04/28 10:02:28;;;;;;;21.20;13.52;;;;;;;;;;5043962;28;20024;-70
2022/04/28 10:04:54;;;;;;;19.83;12.93;;;;;;;;;;5055905;28;20533;-72
2022/04/28 10:07:21;;;;;;;15.00;13.40;;;;;;;;;;5056254;28;20025;-74
2022/04/28 10:09:48;;;;;;;16.15;13.40;;;;;;;;;;5056663;28;20475;-69
2022/04/28 10:12:28;;;;;;;16.27;11.95;;;;;;;;;;5054300;28;20025;-76
2022/04/28 10:14:54;;;;;;;17.17;12.90;;;;;;;;;;5038360;28;20024;-80
2022/04/28 10:17:20;;;;;;;16.65;12.52;;;;;;;;;;5036527;28;20033;-74
2022/04/28 10:19:51;;;;;;;16.42;13.07;;;;;;;;;;5056575;28;20021;-75
2022/04/28 10:22:20;;;;;;;18.10;13.57;;;;;;;;;;5053353;28;20029;-73
2022/04/28 10:33:21;;;;;;;16.75;12.25;;;;;;;;;;5054439;28;20454;-73
2022/04/28 10:35:50;;;;;;;15.32;11.93;;;;;;;;;;5048567;28;20128;-75
2022/04/28 10:38:26;;;;;;;14.75;11.85;;;;;;;;;;5054099;28;20032;-73
2022/04/28 10:40:58;;;;;;;16.55;11.88;;;;;;;;;;5055025;28;20037;-74
2022/04/28 10:43:26;;;;;;;13.77;10.93;;;;;;;;;;5055619;28;20119;-73
2022/04/28 10:45:53;;;;;;;14.20;11.32;;;;;;;;;;5056259;28;20086;-74
2022/04/28 10:48:35;;;;;;;16.08;11.55;;;;;;;;;;5055705;28;20429;-72
2022/04/28 10:51:15;;;;;;;15.35;11.68;;;;;;;;;;5055493;28;20090;-72
2022/04/28 10:53:58;;;;;;;15.60;11.90;;;;;;;;;;5055489;28;20024;-74
2022/04/28 10:56:25;;;;;;;15.45;11.88;;;;;;;;;;5055956;28;20020;-72
2022/04/28 10:58:52;;;;;;;14.30;11.50;;;;;;;;;;5055273;28;20029;-76
2022/04/28 11:01:25;;;;;;;15.23;11.63;;;;;;;;;;5055321;28;20024;-73
2022/04/28 11:03:57;;;;;;;16.50;12.98;;;;;;;;;;5055792;28;20040;-75
2022/04/28 11:06:34;;;;;;;14.18;11.38;;;;;;;;;;5055065;28;20040;-80
2022/04/28 11:09:02;;;;;;;14.63;11.88;;;;;;;;;;5053808;28;20057;-75
2022/04/28 11:11:41;;;;;;;15.15;12.40;;;;;;;;;;5055052;28;20032;-74
2022/04/28 11:14:08;;;;;;;14.60;11.55;;;;;;;;;;5055496;28;20380;-76
2022/04/28 11:16:34;;;;;;;15.85;11.60;;;;;;;;;;5055445;28;20025;-75
2022/04/28 11:19:01;;;;;;;14.38;10.90;;;;;;;;;;5055438;28;20399;-73
2022/04/28 11:21:27;;;;;;;15.82;10.70;;;;;;;;;;5053997;28;20059;-73
2022/04/28 11:23:53;;;;;;;12.88;10.00;;;;;;;;;;5055193;28;20446;-73
2022/04/28 11:26:19;;;;;;;16.88;10.40;;;;;;;;;;5044994;28;20099;-75
2022/04/28 11:28:45;;;;;;;12.48;10.65;;;;;;;;;;5034469;28;20396;-73
2022/04/28 11:31:16;;;;;;;15.93;10.98;;;;;;;;;;5033587;28;20029;-72
2022/04/28 11:33:43;;;;;;;13.68;9.60;;;;;;;;;;5034120;28;20104;-72
2022/04/28 11:36:24;;;;;;;14.20;9.68;;;;;;;;;;5034225;28;20029;-72
2022/04/28 11:38:51;;;;;;;14.00;9.93;;;;;;;;;;5016092;28;20399;-75
2022/04/28 11:41:24;;;;;;;13.43;9.07;;;;;;;;;;5034161;28;20028;-72
2022/04/28 11:43:50;;;;;;;11.40;9.48;;;;;;;;;;5034535;28;20030;-74
2022/04/28 11:46:17;;;;;;;14.27;9.15;;;;;;;;;;5034491;28;20036;-74
2022/04/28 11:48:43;;;;;;;11.32;8.85;;;;;;;;;;5034361;28;20021;-74
2022/04/28 11:51:09;;;;;;;12.68;8.93;;;;;;;;;;5034733;28;20075;-73
2022/04/28 11:53:39;;;;;;;12.20;8.55;;;;;;;;;;5034303;28;20075;-73
2022/04/28 11:56:22;;;;;;;12.13;8.93;;;;;;;;;;5034828;28;20022;-73
2022/04/28 11:58:52;;;;;;;12.68;8.52;;;;;;;;;;5034592;28;20021;-73
2022/04/28 12:01:19;;;;;;;;;;;;;;;;;;5034643;28;20051;-73
2022/04/28 12:03:50;;;;;;;12.27;8.75;;;;;;;;;;5034186;28;19905;-72
2022/04/28 12:06:17;;;;;;;13.77;8.65;;;;;;;;;;5034594;28;20029;-72
2022/04/28 12:08:48;;;;;;;11.80;9.43;;;;;;;;;;5034239;28;20107;-72
2022/04/28 12:19:28;;;;;;;11.32;8.85;;;;;;;;;;5033568;28;20072;-73
2022/04/28 12:22:01;;;;;;;12.13;9.25;;;;;;;;;;5034409;28;20030;-73
2022/04/28 12:24:30;;;;;;;10.63;8.73;;;;;;;;;;5034383;28;20036;-73
2022/04/28 12:26:56;;;;;;;12.40;9.20;;;21.20;64.70;;;;;;5033566;28;20045;-73
2022/04/28 12:29:22;;;;;;;12.50;8.93;;;24.00;80.00;;;;;;5033597;28;20022;-73
2022/04/28 12:31:55;;;;;;;12.18;8.25;;;23.80;81.20;;;;;;5033933;28;20032;-72
2022/04/28 12:34:24;;;;;;;13.73;8.00;;;;;;;;;;5033642;28;20018;-72
2022/04/28 12:36:57;;;;;;;12.30;8.05;;;;;;;;;;5033903;28;20589;-73
2022/04/28 12:39:23;;;;;;;12.50;9.00;;;;;;;;;;5033470;28;20108;-72
2022/04/28 12:41:51;;;;;;;10.40;8.25;;;;;;;;;;5033401;28;20543;-71
2022/04/28 12:44:17;;;;;;;10.85;7.88;;;;;;;;;;5033736;28;20056;-73
2022/04/28 12:46:45;;;;;;;10.38;8.23;;;;;;;;;;5033729;28;20462;-72
2022/04/28 12:49:12;;;;;;;12.68;8.27;;;;;;;;;;5033579;28;20021;-73
2022/04/28 12:51:48;;;;;;;11.77;10.05;;;;;;;;;;5033606;28;20036;-72
2022/04/28 12:54:18;;;;;;;12.40;8.93;;;;;;;;;;5033326;28;20492;-72
2022/04/28 12:56:57;;;;;;;15.00;9.07;;;;;;;;;;5015505;28;20460;-72
2022/04/28 12:59:27;;;;;;;11.73;8.88;;;;;;;;;;5033613;28;20052;-72
2022/04/28 13:01:54;;;;;;;12.38;9.35;;;;;;;;;;5033525;28;20048;-73
2022/04/28 13:04:21;;;;;;;11.50;9.13;;;;;;;;;;5033451;28;20029;-73
2022/04/28 13:06:48;;;;;;;14.25;9.00;;;;;;;;;;5033169;28;20108;-71
2022/04/28 13:09:15;;;;;;;12.45;9.30;;;;;;;;;;5033037;28;20033;-74
2022/04/28 13:11:42;;;;;;;13.30;10.27;;;;;;;;;;5033098;28;20426;-72
2022/04/28 13:14:09;;;;;;;15.68;10.90;;;;;;;;;;5033343;28;20029;-72
2022/04/28 13:16:35;;;;;;;18.20;12.23;;;;;;;;;;5033001;28;20053;-73
2022/04/28 13:19:02;;;;;;;13.43;11.07;;;;;;;;;;5033063;28;20029;-72
2022/04/28 13:21:28;;;;;;;14.18;11.82;;;;;;;;;;5033020;28;20395;-73
2022/04/28 13:23:54;;;;;;;15.85;11.05;;;;;;;;;;5033273;28;20033;-70
2022/04/28 13:26:21;;;;;;;13.95;10.88;;;;;;;;;;5032708;28;20056;-73
2022/04/28 13:28:48;;;;;;;14.07;10.88;;;;;;;;;;5032668;28;20034;-72
2022/04/28 13:31:14;;;;;;;16.50;11.23;;;24.10;77.60;;;;;;5037412;28;20025;-73
2022/04/28 13:33:40;;;;;;;13.98;11.27;;;22.60;83.80;;;;;;5037376;28;20030;-72
2022/04/28 13:36:07;;;;;;;14.55;10.48;;;22.70;83.30;;;;;;5037209;28;20518;-72
2022/04/28 13:38:34;;;;;;;16.00;10.27;;;23.00;85.30;;;;;;5036897;28;20030;-74
2022/04/28 13:41:01;;;;;;;13.77;9.48;;;23.60;83.80;;;;;;5036844;28;20104;-75
2022/04/28 13:43:27;;;;;;;14.40;10.85;;;23.90;82.20;;;;;;5036821;28;20025;-74
2022/04/28 13:45:53;;;;;;;14.40;9.88;;;23.60;81.50;;;;;;5036765;28;20037;-70
2022/04/28 13:48:19;;;;;;;12.90;9.43;;;;;;;;;;5036648;28;20034;-74
2022/04/28 13:50:49;;;;;;;11.75;8.73;;;23.40;81.60;;;;;;5018976;28;20566;-75
2022/04/28 13:53:18;;;;;;;13.55;9.73;;;23.00;82.70;;;;;;5036598;28;20522;-73
2022/04/28 13:55:47;;;;;;;14.50;10.00;;;22.80;81.40;;;;;;5036562;28;20467;-73
2022/04/28 13:58:12;;;;;;;11.57;8.60;;;22.40;82.40;;;;;;5036518;28;20022;-72
2022/04/28 14:00:39;;;;;;;13.27;9.13;;;22.30;83.20;;;;;;5036751;28;20057;-73
2022/04/28 14:03:05;;;;;;;14.15;9.68;;;22.30;84.30;;;;;;5036452;28;20438;-72
2022/04/28 14:05:30;;;;;;;14.27;9.95;;;22.10;83.30;;;;;;5036356;28;20030;-74
2022/04/28 14:07:57;;;;;;;11.60;9.27;;;21.60;84.40;;;;;;5036866;28;20033;-74
2022/04/28 14:10:23;;;;;;;13.80;10.85;;;21.40;86.30;;;;;;5036572;28;20036;-72
2022/04/28 14:12:49;;;;;;;14.45;10.25;;;21.20;85.00;;;;;;5036568;28;20018;-74
2022/04/28 14:15:18;;;;;;;13.43;9.13;;;21.10;86.90;;;;;;5036162;28;20017;-73
2022/04/28 14:17:46;;;;;;;13.68;10.20;;;21.60;88.30;;;;;;5036433;28;20025;-72
2022/04/28 14:20:12;;;;;;;15.85;10.65;;;22.10;85.10;;;;;;5036418;28;20108;-74
2022/04/28 14:22:38;;;;;;;13.60;9.40;;;22.40;83.80;;;;;;5036120;28;20024;-72
2022/04/28 14:25:04;;;;;;;15.15;9.27;;;22.80;84.00;;;;;;5036015;28;20018;-73
2022/04/28 14:27:30;;;;;;;13.38;9.77;;;23.00;84.00;;;;;;5035922;28;20077;-73
2022/04/28 14:29:56;;;;;;;15.32;10.45;;;23.00;83.70;;;;;;5035921;28;20061;-73
2022/04/28 14:32:22;;;;;;;13.32;10.18;;;23.30;84.60;;;;;;5036176;28;20029;-75
2022/04/28 14:34:47;;;;;;;10.57;7.85;;;23.30;84.30;;;;;;5036120;28;20056;-71
2022/04/28 14:37:13;;;;;;;12.45;8.85;;;23.20;82.90;;;;;;5036119;28;20056;-73
2022/04/28 14:39:39;;;;;;;19.25;12.88;;;23.10;82.20;;;;;;5035741;28;20026;-73
2022/04/28 14:42:06;;;;;;;17.30;12.65;;;22.90;86.40;;;;;;5035047;28;20029;-75